This is the latest recevied weather packets stored in our database for station/object SV6DBG-10. If no packets are shown the sender has not sent any weather packets the latest 10 day(s).
| Time | Temp. | Humidity | Pressure | Rain* | Wind** | Luminosity | Snow |
|---|---|---|---|---|---|---|---|
| 1777051181 | 15° C | 42% | 1015.9 hPa | - | - | - | - |
| 1777050281 | 16.67° C | 36% | 1015.7 hPa | - | - | - | - |
| 1777049381 | 18.33° C | 33% | 1015.3 hPa | - | - | - | - |
| 1777048481 | 18.89° C | 30% | 1015.1 hPa | - | - | - | - |
| 1777047580 | 19.44° C | 28% | 1015 hPa | - | - | - | - |
| 1777046680 | 20.56° C | 27% | 1015 hPa | - | - | - | - |
| 1777045780 | 21.11° C | 26% | 1015.1 hPa | - | - | - | - |
| 1777044880 | 21.11° C | 25% | 1015.1 hPa | - | - | - | - |
| 1777043980 | 21.67° C | 24% | 1015 hPa | - | - | - | - |
| 1777043080 | 22.22° C | 24% | 1015.1 hPa | - | - | - | - |
| 1777042179 | 22.78° C | 21% | 1014.9 hPa | - | - | - | - |
| 1777041279 | 22.22° C | 19% | 1014.9 hPa | - | - | - | - |
| 1777040379 | 22.78° C | 18% | 1015 hPa | - | - | - | - |
| 1777039479 | 22.78° C | 19% | 1015 hPa | - | - | - | - |
| 1777038579 | 22.78° C | 18% | 1015 hPa | - | - | - | - |
| 1777037679 | 22.78° C | 18% | 1015.1 hPa | - | - | - | - |
| 1777036778 | 21.67° C | 19% | 1015.2 hPa | - | - | - | - |
| 1777035878 | 22.22° C | 18% | 1015.3 hPa | - | - | - | - |
| 1777034978 | 22.78° C | 18% | 1015.5 hPa | - | - | - | - |
| 1777034078 | 22.78° C | 18% | 1015.7 hPa | - | - | - | - |
| 1777033178 | 23.33° C | 18% | 1015.8 hPa | - | - | - | - |
| 1777032278 | 21.67° C | 18% | 1016.1 hPa | - | - | - | - |
| 1777031377 | 22.22° C | 18% | 1016.2 hPa | - | - | - | - |
| 1777030477 | 21.67° C | 18% | 1016.4 hPa | - | - | - | - |
| 1777029577 | 21.11° C | 20% | 1016.7 hPa | - | - | - | - |
* Rain since midnight (hover to see other rain measurements)
** Current wind speed in m/s (hover to see current wind gust speed)